Time;durP1;ratioP1;P1;durP2;ratioP2;P2;SDS_P1;SDS_P2;PMS_P1;PMS_P2;Temp;Humidity;BMP_temperature;BMP_pressure;BME280_temperature;BME280_humidity;BME280_pressure;Samples;Min_cycle;Max_cycle;Signal;HPM_P1;HPM_P2
2024/04/16 00:01:25;;;;;;;0.30;0.20;;;;;;;8.54;86.98;99301.06;5451908;26;20485;-47
2024/04/16 00:03:52;;;;;;;0.30;0.20;;;;;;;8.64;86.73;99300.75;5451999;26;20548;-46
2024/04/16 00:06:19;;;;;;;0.30;0.20;;;;;;;8.70;86.95;99300.50;5452213;26;20466;-47
2024/04/16 00:08:48;;;;;;;0.30;0.20;;;;;;;8.80;86.29;99309.84;5452004;26;20466;-46
2024/04/16 00:11:14;;;;;;;0.30;0.20;;;;;;;8.72;90.21;99306.59;5452090;26;20584;-47
2024/04/16 00:13:41;;;;;;;0.30;0.20;;;;;;;8.50;89.39;99311.84;5451524;26;20485;-46
2024/04/16 00:16:08;;;;;;;0.30;0.20;;;;;;;8.62;90.62;99324.63;5440516;26;20532;-46
2024/04/16 00:18:35;;;;;;;0.30;0.20;;;;;;;8.40;90.36;99321.03;5444574;26;20525;-47
2024/04/16 00:21:01;;;;;;;0.30;0.20;;;;;;;8.41;91.40;99320.97;5452020;26;20474;-47
2024/04/16 00:23:28;;;;;;;0.30;0.20;;;;;;;8.54;91.63;99324.91;5451525;26;21104;-47
2024/04/16 00:25:54;;;;;;;0.30;0.20;;;;;;;8.26;91.89;99316.19;5451802;26;20477;-47
2024/04/16 00:28:21;;;;;;;0.40;0.20;;;;;;;8.37;91.61;99335.25;5452220;26;20477;-47
2024/04/16 00:30:48;;;;;;;0.30;0.20;;;;;;;7.95;89.04;99322.53;5455455;26;20477;-47
2024/04/16 00:33:15;;;;;;;0.30;0.20;;;;;;;8.17;89.41;99314.69;5455404;26;20526;-46
2024/04/16 00:35:43;;;;;;;0.30;0.20;;;;;;;8.23;89.70;99321.59;5455236;26;20475;-47
2024/04/16 00:38:10;;;;;;;0.30;0.20;;;;;;;8.35;88.82;99312.34;5455074;26;21088;-47
2024/04/16 00:40:36;;;;;;;0.30;0.20;;;;;;;8.15;89.37;99315.69;5455050;26;20469;-47
2024/04/16 00:43:16;;;;;;;0.30;0.20;;;;;;;8.25;88.82;99319.75;5454806;26;20481;-47
2024/04/16 00:45:48;;;;;;;0.30;0.20;;;;;;;8.11;88.46;99311.41;5449959;26;21002;-47
2024/04/16 00:48:16;;;;;;;0.30;0.20;;;;;;;8.15;89.50;99311.25;5454018;26;20522;-48
2024/04/16 00:50:45;;;;;;;0.30;0.20;;;;;;;8.09;89.82;99313.25;5431172;26;20577;-46
2024/04/16 00:53:13;;;;;;;0.30;0.20;;;;;;;8.10;89.82;99312.34;5407551;26;20521;-46
2024/04/16 00:55:40;;;;;;;0.30;0.20;;;;;;;7.99;88.51;99310.91;5454763;26;20469;-47
2024/04/16 00:58:08;;;;;;;0.30;0.20;;;;;;;8.04;87.93;99305.44;5455321;26;20537;-47
2024/04/16 01:00:35;;;;;;;0.30;0.20;;;;;;;8.14;87.75;99301.59;5454662;26;21097;-47
2024/04/16 01:03:02;;;;;;;0.30;0.20;;;;;;;7.89;87.24;99301.53;5455107;26;20485;-47
2024/04/16 01:05:29;;;;;;;0.30;0.20;;;;;;;7.99;89.34;99300.31;5454662;26;20522;-47
2024/04/16 01:07:55;;;;;;;0.30;0.20;;;;;;;7.81;92.34;99310.63;5454788;26;20470;-46
2024/04/16 01:10:22;;;;;;;0.30;0.20;;;;;;;7.93;92.31;99319.03;5454424;26;20818;-48
2024/04/16 01:12:48;;;;;;;0.30;0.20;;;;;;;7.99;90.47;99325.94;5454800;26;20584;-46
2024/04/16 01:15:15;;;;;;;0.30;0.20;;;;;;;7.82;88.05;99328.28;5454470;26;20826;-46
2024/04/16 01:17:41;;;;;;;0.30;0.20;;;;;;;8.07;89.73;99333.59;5434263;26;20894;-46
2024/04/16 01:20:09;;;;;;;0.30;0.20;;;;;;;7.95;88.35;99330.47;5454373;26;21030;-47
2024/04/16 01:22:36;;;;;;;0.30;0.20;;;;;;;7.90;88.19;99342.09;5454580;26;20474;-47
2024/04/16 01:25:03;;;;;;;0.30;0.20;;;;;;;8.20;87.51;99314.59;5454340;26;20469;-47
2024/04/16 01:27:29;;;;;;;0.30;0.20;;;;;;;7.92;89.74;99306.72;5454810;26;20958;-48
2024/04/16 01:29:56;;;;;;;0.30;0.20;;;;;;;7.80;91.69;99311.56;5454305;26;20470;-46
2024/04/16 01:32:22;;;;;;;0.30;0.20;;;;;;;7.86;91.10;99306.94;5454390;26;20477;-47
2024/04/16 01:34:49;;;;;;;0.30;0.20;;;;;;;7.64;91.97;99313.84;5453940;26;20481;-48
2024/04/16 01:37:15;;;;;;;0.30;0.20;;;;;;;7.64;90.36;99320.00;5454434;26;20469;-47
2024/04/16 01:39:42;;;;;;;0.30;0.20;;;;;;;7.62;88.50;99324.47;5453224;26;20481;-46
2024/04/16 01:42:08;;;;;;;0.30;0.20;;;;;;;7.48;88.86;99320.53;5454646;26;20537;-47
2024/04/16 01:44:35;;;;;;;0.30;0.20;;;;;;;7.30;88.74;99320.22;5454644;26;20900;-46
2024/04/16 01:47:02;;;;;;;0.30;0.20;;;;;;;7.10;89.95;99302.31;5447046;26;21010;-47
2024/04/16 01:49:28;;;;;;;0.30;0.20;;;;;;;7.46;89.42;99277.44;5448127;26;20491;-47
2024/04/16 01:51:55;;;;;;;0.30;0.20;;;;;;;7.24;88.33;99296.59;5418410;26;21024;-46
2024/04/16 01:54:22;;;;;;;0.30;0.20;;;;;;;7.12;89.18;99294.34;5447611;26;20533;-47
2024/04/16 01:56:50;;;;;;;0.30;0.20;;;;;;;7.05;90.08;99291.03;5454605;26;20591;-46
2024/04/16 01:59:17;;;;;;;0.30;0.13;;;;;;;7.10;89.74;99296.16;5454444;26;20477;-46
2024/04/16 02:01:44;;;;;;;0.30;0.20;;;;;;;7.17;89.60;99300.38;5454808;26;20477;-47
2024/04/16 02:04:11;;;;;;;0.30;0.20;;;;;;;7.41;90.46;99286.38;5454149;26;20510;-46
2024/04/16 02:06:37;;;;;;;0.30;0.20;;;;;;;7.26;90.79;99285.97;5454342;26;20477;-46
2024/04/16 02:09:07;;;;;;;0.30;0.20;;;;;;;7.30;91.31;99274.41;5453898;26;20870;-47
2024/04/16 02:11:34;;;;;;;0.30;0.20;;;;;;;7.44;90.17;99266.91;5453936;26;20474;-47
2024/04/16 02:14:00;;;;;;;0.30;0.20;;;;;;;7.36;89.13;99255.72;5453662;26;20579;-47
2024/04/16 02:16:27;;;;;;;0.30;0.20;;;;;;;7.37;89.14;99260.94;5437513;26;20535;-47
2024/04/16 02:18:53;;;;;;;0.30;0.20;;;;;;;7.28;88.84;99249.81;5449524;26;20466;-47
2024/04/16 02:21:20;;;;;;;0.30;0.20;;;;;;;7.43;88.98;99259.91;5453674;26;20486;-46
2024/04/16 02:23:48;;;;;;;0.30;0.20;;;;;;;7.42;88.46;99255.53;5453618;26;20466;-46
2024/04/16 02:26:14;;;;;;;0.30;0.20;;;;;;;7.18;89.78;99258.94;5453742;26;20824;-46
2024/04/16 02:28:42;;;;;;;0.30;0.20;;;;;;;7.12;89.53;99260.84;5453335;26;20521;-47
2024/04/16 02:31:08;;;;;;;0.30;0.20;;;;;;;7.36;88.49;99261.00;5453477;26;20482;-47
2024/04/16 02:33:35;;;;;;;0.30;0.20;;;;;;;7.24;88.30;99254.31;5453249;26;20477;-46
2024/04/16 02:36:03;;;;;;;0.30;0.20;;;;;;;7.17;89.02;99252.78;5453494;26;20474;-46
2024/04/16 02:38:29;;;;;;;0.30;0.20;;;;;;;7.11;90.17;99252.97;5453247;26;21070;-46
2024/04/16 02:40:56;;;;;;;0.30;0.20;;;;;;;7.03;90.47;99252.38;5453570;26;20478;-47
2024/04/16 02:43:22;;;;;;;0.30;0.20;;;;;;;7.15;89.68;99265.19;5453197;26;20466;-46
2024/04/16 02:45:49;;;;;;;0.30;0.20;;;;;;;7.21;90.89;99258.84;5446387;26;20934;-46
2024/04/16 02:48:15;;;;;;;0.30;0.20;;;;;;;6.89;90.36;99263.34;5451631;26;20522;-47
2024/04/16 02:50:42;;;;;;;0.30;0.20;;;;;;;7.32;89.36;99262.88;5428807;26;20577;-46
2024/04/16 02:53:09;;;;;;;0.30;0.20;;;;;;;7.17;88.28;99268.66;5428672;26;21062;-47
2024/04/16 02:55:35;;;;;;;0.30;0.20;;;;;;;7.07;89.31;99269.84;5453206;26;20557;-46
2024/04/16 02:58:02;;;;;;;0.30;0.20;;;;;;;7.13;89.25;99270.53;5453196;26;20526;-46
2024/04/16 03:00:30;;;;;;;0.30;0.20;;;;;;;7.02;89.75;99269.13;5452819;26;21021;-49
2024/04/16 03:02:56;;;;;;;0.30;0.20;;;;;;;6.89;90.74;99273.06;5406461;26;20478;-46
2024/04/16 03:05:23;;;;;;;0.30;0.20;;;;;;;6.78;91.08;99270.72;5452799;26;20478;-46
2024/04/16 03:07:50;;;;;;;0.30;0.20;;;;;;;6.67;93.00;99257.84;5453209;26;20469;-47
2024/04/16 03:10:16;;;;;;;0.30;0.20;;;;;;;6.71;93.75;99256.81;5453281;26;20518;-46
2024/04/16 03:12:44;;;;;;;0.30;0.20;;;;;;;6.73;93.22;99256.81;5453131;26;20847;-46
2024/04/16 03:15:11;;;;;;;0.30;0.20;;;;;;;6.77;92.69;99247.88;5452985;26;20864;-47
2024/04/16 03:17:37;;;;;;;0.30;0.20;;;;;;;6.78;91.91;99252.25;5433182;26;20477;-46
2024/04/16 03:20:05;;;;;;;0.30;0.20;;;;;;;6.57;92.28;99242.31;5452597;26;20473;-47
2024/04/16 03:22:32;;;;;;;0.30;0.20;;;;;;;6.59;93.06;99245.78;5453073;26;20597;-46
2024/04/16 03:24:58;;;;;;;0.30;0.20;;;;;;;6.48;92.96;99230.25;5452859;26;20469;-46
2024/04/16 03:27:25;;;;;;;0.30;0.10;;;;;;;6.41;93.07;99228.69;5452907;26;20587;-47
2024/04/16 03:29:51;;;;;;;0.30;0.20;;;;;;;6.53;92.81;99221.28;5452779;26;20470;-46
2024/04/16 03:32:18;;;;;;;0.30;0.10;;;;;;;6.51;92.79;99225.75;5452696;26;20864;-46
2024/04/16 03:34:45;;;;;;;0.30;0.20;;;;;;;6.65;92.11;99230.63;5452354;26;20466;-46
2024/04/16 03:37:11;;;;;;;0.30;0.20;;;;;;;6.44;92.85;99236.50;5452742;26;20469;-46
2024/04/16 03:39:38;;;;;;;0.30;0.20;;;;;;;6.47;93.81;99239.09;5452391;26;20583;-46
2024/04/16 03:42:04;;;;;;;0.30;0.20;;;;;;;6.36;93.49;99231.47;5452437;26;20522;-46
2024/04/16 03:44:31;;;;;;;0.30;0.20;;;;;;;6.45;93.77;99231.22;5450856;26;20587;-46
2024/04/16 03:46:57;;;;;;;0.30;0.20;;;;;;;6.41;94.10;99228.69;5443111;26;20857;-46
2024/04/16 03:49:24;;;;;;;0.30;0.17;;;;;;;6.57;93.65;99229.09;5447319;26;20531;-47
2024/04/16 03:51:51;;;;;;;0.30;0.20;;;;;;;6.40;94.29;99225.19;5416687;26;21015;-46
2024/04/16 03:54:17;;;;;;;0.30;0.20;;;;;;;6.56;94.96;99232.66;5444800;26;21002;-45
2024/04/16 03:56:44;;;;;;;0.30;0.20;;;;;;;6.65;95.25;99235.03;5452911;26;20474;-46
2024/04/16 03:59:37;;;;;;;0.30;0.20;;;;;;;6.67;94.47;99241.13;5452358;26;20470;-46
2024/04/16 04:02:04;;;;;;;0.30;0.20;;;;;;;6.65;94.57;99232.38;5452007;26;20474;-46
2024/04/16 04:04:33;;;;;;;0.30;0.20;;;;;;;6.66;93.40;99224.41;5451592;26;20478;-47
2024/04/16 04:06:59;;;;;;;0.30;0.20;;;;;;;6.64;93.86;99220.09;5451669;26;20485;-47
2024/04/16 04:09:26;;;;;;;0.30;0.20;;;;;;;7.22;91.49;99229.72;5452269;26;20537;-47
2024/04/16 04:11:53;;;;;;;0.30;0.20;;;;;;;6.80;93.22;99216.09;5451683;26;20477;-48
2024/04/16 04:14:19;;;;;;;0.30;0.20;;;;;;;6.85;93.39;99219.44;5452557;26;20526;-47
2024/04/16 04:16:46;;;;;;;0.30;0.20;;;;;;;6.87;92.88;99219.41;5431875;26;20549;-47
2024/04/16 04:19:12;;;;;;;0.30;0.20;;;;;;;6.78;93.87;99218.78;5452126;26;20477;-46
2024/04/16 04:21:39;;;;;;;0.30;0.20;;;;;;;6.92;93.41;99213.06;5451145;26;20470;-47
2024/04/16 04:24:06;;;;;;;0.30;0.20;;;;;;;6.98;92.75;99220.78;5451835;26;20473;-47
2024/04/16 04:26:45;;;;;;;0.30;0.20;;;;;;;6.85;92.61;99227.34;5451621;26;21017;-48
2024/04/16 04:29:12;;;;;;;0.30;0.20;;;;;;;7.08;92.56;99222.22;5451598;26;20469;-48
2024/04/16 04:31:39;;;;;;;0.30;0.20;;;;;;;6.83;92.35;99229.19;5451355;26;20482;-47
2024/04/16 04:34:06;;;;;;;0.30;0.20;;;;;;;7.00;92.97;99234.84;5451707;26;20575;-47
2024/04/16 04:36:33;;;;;;;0.30;0.20;;;;;;;7.18;92.33;99228.09;5451412;26;20481;-48
2024/04/16 04:38:59;;;;;;;0.30;0.20;;;;;;;7.23;91.76;99233.22;5451594;26;20836;-48
2024/04/16 04:41:26;;;;;;;0.30;0.20;;;;;;;7.35;91.92;99230.19;5451254;26;20469;-47
2024/04/16 04:43:54;;;;;;;0.30;0.20;;;;;;;7.54;90.31;99223.41;5450994;26;20469;-48
2024/04/16 04:46:21;;;;;;;0.30;0.20;;;;;;;7.55;91.08;99235.69;5443304;26;20525;-46
2024/04/16 04:48:48;;;;;;;0.30;0.20;;;;;;;7.46;91.86;99237.78;5451346;26;21065;-48
2024/04/16 04:51:15;;;;;;;0.30;0.20;;;;;;;8.21;88.99;99231.59;5419309;26;20608;-47
2024/04/16 04:53:41;;;;;;;0.30;0.20;;;;;;;8.15;87.90;99234.50;5434486;26;20477;-47
2024/04/16 04:56:08;;;;;;;0.30;0.20;;;;;;;8.09;87.29;99225.91;5451068;26;20473;-47
2024/04/16 04:58:34;;;;;;;0.30;0.20;;;;;;;8.02;88.92;99223.47;5451119;26;20465;-47
2024/04/16 05:01:01;;;;;;;0.30;0.20;;;;;;;8.09;88.98;99223.28;5450586;26;20541;-48
2024/04/16 05:03:28;;;;;;;0.30;0.20;;;;;;;8.06;88.93;99208.34;5451188;26;20473;-47
2024/04/16 05:05:55;;;;;;;0.30;0.20;;;;;;;7.96;90.03;99217.56;5450729;26;20816;-47
2024/04/16 05:08:23;;;;;;;0.30;0.20;;;;;;;7.99;88.90;99222.72;5451024;26;20522;-48
2024/04/16 05:10:51;;;;;;;0.30;0.20;;;;;;;8.08;89.29;99222.38;5450748;26;20478;-48
2024/04/16 05:13:18;;;;;;;0.30;0.20;;;;;;;7.89;89.96;99213.38;5450572;26;20474;-46
2024/04/16 05:15:45;;;;;;;0.30;0.20;;;;;;;8.01;90.02;99205.00;5446254;26;20945;-47
2024/04/16 05:18:12;;;;;;;0.30;0.20;;;;;;;8.06;89.58;99196.91;5439829;26;20473;-47
2024/04/16 05:20:39;;;;;;;0.30;0.20;;;;;;;7.91;89.96;99209.75;5453261;26;20559;-47
2024/04/16 05:23:05;;;;;;;0.30;0.20;;;;;;;7.95;90.92;99200.81;5453978;26;20470;-47
2024/04/16 05:25:32;;;;;;;0.30;0.20;;;;;;;7.93;90.61;99202.63;5453962;26;20469;-47
2024/04/16 05:27:58;;;;;;;0.30;0.20;;;;;;;8.15;89.98;99205.38;5453928;26;20477;-47
2024/04/16 05:30:25;;;;;;;0.30;0.20;;;;;;;8.20;89.13;99202.56;5453679;26;20522;-47
2024/04/16 05:32:53;;;;;;;0.30;0.20;;;;;;;8.30;88.40;99199.50;5454094;26;20587;-47
2024/04/16 05:35:19;;;;;;;0.30;0.20;;;;;;;8.37;88.46;99207.28;5454015;26;21135;-47
2024/04/16 05:37:46;;;;;;;0.30;0.20;;;;;;;8.49;87.85;99207.66;5452587;26;20454;-47
2024/04/16 05:40:14;;;;;;;0.30;0.20;;;;;;;8.44;86.60;99201.69;5453423;26;20469;-48
2024/04/16 05:42:41;;;;;;;0.30;0.20;;;;;;;8.25;87.98;99197.97;5453740;26;20557;-47
2024/04/16 05:45:07;;;;;;;0.30;0.20;;;;;;;8.37;87.69;99208.16;5453441;26;21033;-48
2024/04/16 05:47:34;;;;;;;0.30;0.10;;;;;;;8.63;86.64;99212.44;5444785;26;20522;-48
2024/04/16 05:50:00;;;;;;;0.30;0.20;;;;;;;8.12;87.91;99202.84;5439297;26;20479;-47
2024/04/16 05:52:27;;;;;;;0.30;0.20;;;;;;;8.13;89.95;99206.34;5418505;26;20475;-46
2024/04/16 05:54:54;;;;;;;0.30;0.20;;;;;;;8.39;89.49;99206.31;5453968;26;20481;-48
2024/04/16 05:57:20;;;;;;;0.30;0.20;;;;;;;8.16;90.13;99200.94;5453697;26;20526;-47
2024/04/16 05:59:47;;;;;;;0.30;0.20;;;;;;;8.44;89.39;99198.16;5453687;26;20485;-47
2024/04/16 06:02:14;;;;;;;0.30;0.20;;;;;;;8.37;89.04;99196.69;5453222;26;20851;-47
2024/04/16 06:04:40;;;;;;;0.30;0.20;;;;;;;8.39;89.86;99200.16;5453600;26;20470;-48
2024/04/16 06:07:07;;;;;;;0.30;0.20;;;;;;;8.60;89.26;99204.63;5453249;26;20821;-47
2024/04/16 06:09:34;;;;;;;0.30;0.20;;;;;;;8.55;90.46;99199.50;5453252;26;20470;-47
2024/04/16 06:12:00;;;;;;;0.30;0.20;;;;;;;8.81;90.88;99201.16;5453031;26;20478;-46
2024/04/16 06:14:27;;;;;;;0.30;0.20;;;;;;;8.53;92.48;99209.28;5451770;26;20470;-48
2024/04/16 06:16:53;;;;;;;0.30;0.20;;;;;;;8.24;92.69;99196.25;5431668;26;20527;-47
2024/04/16 06:19:20;;;;;;;0.30;0.20;;;;;;;8.55;92.58;99201.28;5453434;26;20518;-47
2024/04/16 06:21:46;;;;;;;0.30;0.20;;;;;;;8.57;91.96;99194.13;5453017;26;20482;-47
2024/04/16 06:24:13;;;;;;;0.30;0.20;;;;;;;8.46;93.04;99191.88;5453539;26;20556;-47
2024/04/16 06:26:40;;;;;;;0.30;0.20;;;;;;;8.77;91.89;99186.31;5452574;26;20469;-47
2024/04/16 06:29:06;;;;;;;0.30;0.20;;;;;;;8.58;92.44;99186.13;5452899;26;20522;-47
2024/04/16 06:31:33;;;;;;;0.30;0.20;;;;;;;8.54;92.17;99183.66;5452541;26;20605;-47
2024/04/16 06:33:59;;;;;;;0.30;0.20;;;;;;;8.72;92.05;99182.94;5452591;26;20932;-47
2024/04/16 06:36:26;;;;;;;0.30;0.20;;;;;;;8.43;92.02;99177.91;5452382;26;20508;-47
2024/04/16 06:38:53;;;;;;;0.30;0.20;;;;;;;8.67;91.84;99173.47;5453137;26;20865;-47
2024/04/16 06:41:19;;;;;;;0.30;0.20;;;;;;;8.73;92.13;99179.38;5448934;26;20473;-47
2024/04/16 06:43:46;;;;;;;0.30;0.20;;;;;;;8.95;91.33;99174.09;5410317;26;21066;-48
2024/04/16 06:46:12;;;;;;;0.30;0.20;;;;;;;9.14;91.33;99177.72;5442695;26;20475;-48
2024/04/16 06:48:39;;;;;;;0.30;0.20;;;;;;;9.21;89.61;99175.72;5452982;26;21026;-47
2024/04/16 06:51:06;;;;;;;0.30;0.20;;;;;;;9.35;89.03;99157.44;5422539;26;20936;-47
2024/04/16 06:53:32;;;;;;;0.30;0.20;;;;;;;9.30;86.97;99162.06;5431972;26;21058;-48
2024/04/16 06:56:04;;;;;;;0.30;0.20;;;;;;;9.81;86.49;99166.06;5452755;26;21048;-47
2024/04/16 06:58:31;;;;;;;0.30;0.20;;;;;;;9.70;85.58;99160.38;5452802;26;20469;-49
2024/04/16 07:00:57;;;;;;;0.30;0.20;;;;;;;10.02;85.12;99151.88;5452617;26;20534;-47
2024/04/16 07:03:24;;;;;;;0.30;0.20;;;;;;;9.90;85.02;99140.94;5453066;26;20532;-48
2024/04/16 07:05:50;;;;;;;0.30;0.20;;;;;;;9.98;82.13;99134.34;5452841;26;20526;-47
2024/04/16 07:08:18;;;;;;;0.30;0.20;;;;;;;10.31;81.45;99133.78;5453006;26;20524;-47
2024/04/16 07:10:46;;;;;;;0.30;0.20;;;;;;;9.87;83.56;99133.97;5452945;26;21010;-47
2024/04/16 07:13:14;;;;;;;0.30;0.20;;;;;;;9.86;83.66;99129.56;5453090;26;21022;-49
2024/04/16 07:15:44;;;;;;;0.30;0.20;;;;;;;10.34;82.44;99144.25;5447172;26;20539;-47
2024/04/16 07:18:11;;;;;;;0.30;0.20;;;;;;;10.21;82.50;99130.69;5439460;26;20466;-47
2024/04/16 07:20:38;;;;;;;0.30;0.20;;;;;;;9.79;83.13;99117.53;5452171;26;20473;-47
2024/04/16 07:23:05;;;;;;;0.30;0.20;;;;;;;10.06;82.97;99112.75;5452487;26;20474;-47
2024/04/16 07:25:33;;;;;;;0.30;0.20;;;;;;;10.03;83.62;99118.22;5452425;26;20525;-47
2024/04/16 07:27:59;;;;;;;0.30;0.20;;;;;;;9.94;83.10;99116.81;5452582;26;20533;-47
2024/04/16 07:30:26;;;;;;;0.30;0.20;;;;;;;10.28;83.29;99113.56;5450814;26;20522;-48
2024/04/16 07:32:52;;;;;;;0.30;0.20;;;;;;;10.44;80.44;99107.53;5452524;26;20519;-48
2024/04/16 07:35:19;;;;;;;0.30;0.20;;;;;;;10.37;81.30;99110.44;5452535;26;20478;-48
2024/04/16 07:37:45;;;;;;;0.30;0.20;;;;;;;10.49;79.73;99106.34;5450927;26;20483;-48
2024/04/16 07:40:12;;;;;;;0.30;0.20;;;;;;;10.46;80.68;99110.97;5452420;26;20711;-48
2024/04/16 07:42:39;;;;;;;0.30;0.20;;;;;;;10.96;79.62;99106.75;5452063;26;21076;-48
2024/04/16 07:45:06;;;;;;;0.30;0.20;;;;;;;11.09;79.28;99101.63;5452459;26;20470;-48
2024/04/16 07:47:32;;;;;;;0.30;0.20;;;;;;;10.92;77.33;99091.84;5445205;26;20994;-48
2024/04/16 07:49:59;;;;;;;0.30;0.20;;;;;;;11.05;77.96;99089.44;5439780;26;20486;-47
2024/04/16 07:52:25;;;;;;;0.30;0.20;;;;;;;10.68;80.45;99082.41;5416594;26;20584;-47
2024/04/16 07:54:52;;;;;;;0.30;0.20;;;;;;;10.63;78.95;99079.97;5405608;26;21017;-48
2024/04/16 07:57:19;;;;;;;0.30;0.20;;;;;;;10.63;79.99;99087.09;5451901;26;20485;-47
2024/04/16 07:59:45;;;;;;;0.30;0.20;;;;;;;10.45;79.64;99078.22;5452076;26;20474;-48
2024/04/16 08:02:12;;;;;;;0.30;0.20;;;;;;;10.50;79.69;99086.81;5452437;26;20477;-51
2024/04/16 08:04:39;;;;;;;0.30;0.20;;;;;;;10.38;79.53;99074.13;5450217;26;20564;-50
2024/04/16 08:07:06;;;;;;;0.30;0.20;;;;;;;10.33;80.53;99074.34;5451819;26;21049;-50
2024/04/16 08:09:32;;;;;;;0.30;0.20;;;;;;;10.22;81.68;99068.66;5451974;26;20579;-51
2024/04/16 08:12:00;;;;;;;0.30;0.20;;;;;;;10.40;81.15;99080.22;5451606;26;20520;-50
2024/04/16 08:14:27;;;;;;;0.30;0.20;;;;;;;10.05;81.62;99074.72;5451795;26;20470;-50
2024/04/16 08:16:53;;;;;;;0.30;0.20;;;;;;;10.03;80.93;99070.44;5430217;26;20524;-50
2024/04/16 08:19:20;;;;;;;0.30;0.20;;;;;;;10.09;81.84;99075.44;5451527;26;20462;-50
2024/04/16 08:21:46;;;;;;;0.30;0.20;;;;;;;10.13;80.95;99078.81;5451372;26;20619;-50
2024/04/16 08:24:13;;;;;;;0.30;0.20;;;;;;;9.88;83.42;99071.13;5451573;26;20473;-51
2024/04/16 08:26:40;;;;;;;0.30;0.20;;;;;;;9.84;84.27;99073.03;5451182;26;21035;-51
2024/04/16 08:29:06;;;;;;;0.30;0.20;;;;;;;9.74;85.31;99067.31;5451103;26;20526;-50
2024/04/16 08:31:33;;;;;;;0.30;0.20;;;;;;;9.62;87.24;99078.47;5450677;26;20854;-50
2024/04/16 08:34:01;;;;;;;0.30;0.20;;;;;;;9.93;85.80;99069.13;5451329;26;20537;-51
2024/04/16 08:36:30;;;;;;;0.30;0.20;;;;;;;9.55;87.62;99062.88;5450958;26;20474;-51
2024/04/16 08:38:56;;;;;;;0.30;0.20;;;;;;;9.42;89.11;99051.94;5451390;26;20473;-51
2024/04/16 08:41:23;;;;;;;0.30;0.20;;;;;;;9.54;89.83;99050.53;5450849;26;20474;-50
2024/04/16 08:43:52;;;;;;;0.30;0.20;;;;;;;9.34;91.79;99059.38;5451440;26;20470;-51
2024/04/16 08:46:19;;;;;;;0.30;0.20;;;;;;;9.49;91.13;99054.28;5441641;26;20609;-51
2024/04/16 08:48:46;;;;;;;0.30;0.20;;;;;;;9.19;93.57;99056.47;5451360;26;20592;-50
2024/04/16 08:51:13;;;;;;;0.30;0.20;;;;;;;9.33;92.67;99053.22;5422756;26;21145;-50
2024/04/16 08:53:42;;;;;;;0.30;0.20;;;;;;;9.35;94.79;99046.06;5438004;26;20587;-50
2024/04/16 08:56:09;;;;;;;0.30;0.20;;;;;;;9.26;96.20;99045.59;5454709;26;20470;-51
2024/04/16 08:58:36;;;;;;;0.30;0.20;;;;;;;9.50;95.13;99063.94;5454712;26;20469;-50
2024/04/16 09:01:06;;;;;;;0.30;0.20;;;;;;;9.26;96.47;99062.34;5452635;26;20559;-50
2024/04/16 09:03:34;;;;;;;0.30;0.13;;;;;;;9.30;96.04;99057.78;5455059;26;21013;-51
2024/04/16 09:06:01;;;;;;;0.30;0.20;;;;;;;9.38;95.47;99045.91;5454561;26;20530;-50
2024/04/16 09:08:28;;;;;;;0.30;0.20;;;;;;;9.57;95.68;99039.78;5454561;26;20574;-50
2024/04/16 09:10:54;;;;;;;0.30;0.20;;;;;;;9.41;98.06;99039.63;5454465;26;20580;-50
2024/04/16 09:13:22;;;;;;;0.30;0.20;;;;;;;9.72;97.47;99041.75;5454512;26;20547;-50
2024/04/16 09:15:48;;;;;;;0.30;0.20;;;;;;;9.67;99.57;99041.97;5447669;26;20490;-50
2024/04/16 09:18:22;;;;;;;0.30;0.20;;;;;;;9.72;97.72;99039.97;5441263;26;21022;-51
2024/04/16 09:20:49;;;;;;;0.30;0.20;;;;;;;9.88;97.91;99029.53;5407219;26;20839;-51
2024/04/16 09:23:16;;;;;;;0.30;0.20;;;;;;;10.07;96.39;99041.00;5453697;26;20523;-50
2024/04/16 09:25:42;;;;;;;0.30;0.20;;;;;;;10.06;95.31;99020.69;5454198;26;20522;-51
2024/04/16 09:28:13;;;;;;;0.30;0.20;;;;;;;10.50;95.19;99028.38;5453734;26;20546;-51
2024/04/16 09:30:53;;;;;;;0.30;0.20;;;;;;;10.48;95.05;99032.03;5454141;26;20469;-51
2024/04/16 09:33:20;;;;;;;0.30;0.20;;;;;;;10.40;93.63;99021.78;5454008;26;21103;-51
2024/04/16 09:36:10;;;;;;;0.30;0.20;;;;;;;10.26;95.90;99026.88;5454155;26;20524;-50
2024/04/16 09:38:44;;;;;;;0.30;0.20;;;;;;;10.35;93.25;99008.72;5453996;26;20793;-51
2024/04/16 09:41:12;;;;;;;0.30;0.20;;;;;;;10.45;94.72;99018.91;5453833;26;20470;-50
2024/04/16 09:43:42;;;;;;;0.30;0.20;;;;;;;10.46;95.11;99018.84;5454012;26;20530;-51
2024/04/16 09:46:10;;;;;;;0.30;0.20;;;;;;;10.88;95.30;99021.16;5443367;26;20470;-51
2024/04/16 09:48:39;;;;;;;0.30;0.20;;;;;;;10.80;95.44;99009.19;5453851;26;20892;-51
2024/04/16 09:51:06;;;;;;;0.30;0.20;;;;;;;10.85;93.66;99020.47;5423446;26;20487;-51
2024/04/16 09:53:39;;;;;;;0.30;0.20;;;;;;;11.03;93.16;99029.31;5434944;26;20477;-50
2024/04/16 09:56:08;;;;;;;0.30;0.20;;;;;;;11.16;90.83;99010.00;5453641;26;20558;-51
2024/04/16 09:58:36;;;;;;;0.30;0.20;;;;;;;11.54;89.05;99010.66;5453901;26;20586;-51
2024/04/16 10:01:04;;;;;;;0.30;0.20;;;;;;;11.15;87.94;99026.88;5452496;26;20486;-50
2024/04/16 10:03:31;;;;;;;0.30;0.20;;;;;;;11.36;88.25;99032.03;5454146;26;20876;-50
2024/04/16 10:05:57;;;;;;;0.30;0.20;;;;;;;11.46;86.80;99020.81;5453557;26;20803;-51
2024/04/16 10:08:25;;;;;;;0.30;0.20;;;;;;;11.37;86.51;99015.13;5453706;26;20522;-51
2024/04/16 10:10:56;;;;;;;0.30;0.20;;;;;;;11.43;84.88;99010.34;5453888;26;20477;-51
2024/04/16 10:13:27;;;;;;;0.30;0.20;;;;;;;11.53;83.90;99016.06;5454109;26;20473;-50
2024/04/16 10:15:56;;;;;;;0.30;0.20;;;;;;;11.94;83.61;99026.31;5445241;26;20471;-50
2024/04/16 10:18:23;;;;;;;0.30;0.20;;;;;;;11.45;82.17;99019.09;5441864;26;20469;-50
2024/04/16 10:20:52;;;;;;;0.30;0.20;;;;;;;11.92;82.19;99022.84;5453401;26;20473;-50
2024/04/16 10:23:18;;;;;;;0.30;0.20;;;;;;;11.63;80.66;99022.59;5453547;26;20560;-50
2024/04/16 10:25:50;;;;;;;0.30;0.20;;;;;;;11.62;80.90;99020.00;5453858;26;20584;-50
2024/04/16 10:28:32;;;;;;;0.30;0.20;;;;;;;11.83;81.38;99018.91;5453543;26;20477;-51
2024/04/16 10:31:01;;;;;;;0.30;0.20;;;;;;;11.98;81.49;99011.88;5454431;26;20477;-51
2024/04/16 10:33:32;;;;;;;0.30;0.20;;;;;;;11.80;81.33;99019.06;5453685;26;20514;-51
2024/04/16 10:35:59;;;;;;;0.30;0.20;;;;;;;11.70;80.61;99020.47;5453602;26;20537;-51
2024/04/16 10:38:26;;;;;;;0.30;0.20;;;;;;;11.86;79.91;99021.41;5453246;26;21081;-51
2024/04/16 10:40:56;;;;;;;0.30;0.20;;;;;;;12.12;80.73;99002.19;5453135;26;20474;-51
2024/04/16 10:43:26;;;;;;;0.30;0.20;;;;;;;12.19;77.92;99025.81;5453300;26;20518;-51
2024/04/16 10:45:54;;;;;;;0.30;0.20;;;;;;;11.84;77.77;99034.78;5445557;26;20867;-51
2024/04/16 10:48:22;;;;;;;0.30;0.20;;;;;;;11.56;79.72;99022.06;5452855;26;20893;-50
2024/04/16 10:50:50;;;;;;;0.30;0.20;;;;;;;11.87;79.45;99017.78;5427713;26;20882;-50
2024/04/16 10:53:19;;;;;;;0.30;0.20;;;;;;;12.01;79.53;99028.53;5430196;26;20518;-50
2024/04/16 10:55:47;;;;;;;0.30;0.20;;;;;;;12.03;78.91;99016.00;5452731;26;20497;-50
2024/04/16 10:58:21;;;;;;;0.30;0.20;;;;;;;12.15;79.58;99019.78;5453138;26;20690;-51
2024/04/16 11:00:54;;;;;;;0.30;0.20;;;;;;;11.96;78.75;99030.63;5452346;26;20486;-50
2024/04/16 11:03:21;;;;;;;0.30;0.20;;;;;;;12.39;76.80;99015.75;5452828;26;20526;-51
2024/04/16 11:05:48;;;;;;;0.30;0.20;;;;;;;12.34;77.22;99009.00;5452069;26;20528;-51
2024/04/16 11:08:16;;;;;;;0.30;0.20;;;;;;;12.38;74.24;99005.19;5452236;26;20466;-50
2024/04/16 11:10:49;;;;;;;0.30;0.20;;;;;;;12.34;74.71;99015.19;5452488;26;20813;-51
2024/04/16 11:13:17;;;;;;;0.30;0.20;;;;;;;12.12;74.32;99010.19;5451627;26;20542;-50
2024/04/16 11:15:44;;;;;;;0.30;0.20;;;;;;;12.23;72.68;99016.72;5447027;26;20471;-50
2024/04/16 11:18:11;;;;;;;0.30;0.20;;;;;;;12.32;72.83;99032.16;5439173;26;20469;-51
2024/04/16 11:20:39;;;;;;;0.30;0.20;;;;;;;12.35;72.93;99029.34;5452688;26;20477;-50
2024/04/16 11:23:06;;;;;;;0.30;0.20;;;;;;;12.50;73.18;99016.97;5452956;26;20579;-50
2024/04/16 11:25:33;;;;;;;0.30;0.20;;;;;;;12.43;72.87;99005.78;5452890;26;20669;-51
2024/04/16 11:28:00;;;;;;;0.30;0.20;;;;;;;12.37;70.00;99017.66;5453268;26;20951;-50
2024/04/16 11:30:27;;;;;;;0.30;0.20;;;;;;;12.58;70.51;99004.91;5452722;26;20515;-50
2024/04/16 11:32:53;;;;;;;0.30;0.20;;;;;;;12.59;70.91;99003.09;5452656;26;20470;-50
2024/04/16 11:35:20;;;;;;;0.30;0.20;;;;;;;12.58;69.31;99004.91;5452483;26;20493;-50
2024/04/16 11:37:47;;;;;;;0.30;0.20;;;;;;;12.75;70.56;99004.81;5452588;26;20850;-51
2024/04/16 11:40:13;;;;;;;0.30;0.20;;;;;;;12.84;69.67;99018.53;5452553;26;20473;-50